Time;durP1;ratioP1;P1;durP2;ratioP2;P2;SDS_P1;SDS_P2;PMS_P1;PMS_P2;Temp;Humidity;BMP_temperature;BMP_pressure;BME280_temperature;BME280_humidity;BME280_pressure;Samples;Min_cycle;Max_cycle;Signal;HPM_P1;HPM_P2
2022/10/28 00:01:13;;;;;;;18.85;14.45;;;;;;;13.77;100.00;101531.50;5010977;28;20347;-61
2022/10/28 00:03:41;;;;;;;24.02;15.43;;;;;;;13.48;100.00;101469.84;5012259;28;20076;-60
2022/10/28 00:06:09;;;;;;;21.05;14.95;;;;;;;13.47;100.00;101472.56;5010499;28;20029;-61
2022/10/28 00:08:35;;;;;;;20.25;13.93;;;;;;;13.41;100.00;101457.78;5012850;28;20044;-61
2022/10/28 00:11:14;;;;;;;20.25;15.52;;;;;;;13.74;100.00;101494.56;5015760;28;20030;-59
2022/10/28 00:13:42;;;;;;;22.60;15.13;;;;;;;13.70;100.00;101504.38;5014362;28;20065;-60
2022/10/28 00:16:18;;;;;;;23.17;15.10;;;;;;;13.64;100.00;101503.72;5015896;28;20523;-61
2022/10/28 00:18:43;;;;;;;21.10;15.48;;;;;;;13.70;100.00;101512.31;5031266;28;20141;-60
2022/10/28 00:21:15;;;;;;;19.42;14.88;;;;;;;13.39;100.00;101458.75;5015638;28;20117;-60
2022/10/28 00:23:40;;;;;;;24.85;15.13;;;;;;;13.71;100.00;101489.38;5031099;28;20033;-60
2022/10/28 00:26:14;;;;;;;22.70;14.82;;;;;;;13.44;100.00;101455.03;5014387;28;20025;-61
2022/10/28 00:28:48;;;;;;;19.38;14.88;;;;;;;13.78;100.00;101519.97;5015845;28;20128;-62
2022/10/28 00:31:15;;;;;;;26.27;14.50;;;;;;;13.39;100.00;101459.59;5015665;28;20040;-61
2022/10/28 00:33:41;;;;;;;21.40;16.13;;;;;;;13.63;100.00;101502.00;5014246;28;20053;-60
2022/10/28 00:36:11;;;;;;;21.88;14.95;;;;;;;13.71;100.00;101523.75;4997995;28;20378;-62
2022/10/28 00:38:37;;;;;;;21.83;15.35;;;;;;;13.63;100.00;101507.28;5015400;28;20044;-61
2022/10/28 00:41:02;;;;;;;19.38;14.63;;;;;;;13.35;100.00;101467.69;5015538;28;20041;-61
2022/10/28 00:43:43;;;;;;;25.25;15.02;;;;;;;13.33;100.00;101466.88;5014208;28;20034;-61
2022/10/28 00:46:23;;;;;;;19.65;15.45;;;;;;;13.50;100.00;101505.06;5015179;28;20045;-62
2022/10/28 00:48:53;;;;;;;22.23;14.93;;;;;;;13.58;100.00;101520.66;5014881;28;20065;-61
2022/10/28 00:51:20;;;;;;;23.77;15.23;;;;;;;13.23;100.00;101454.88;5013927;28;20141;-61
2022/10/28 00:53:47;;;;;;;20.02;14.85;;;;;;;13.05;100.00;101434.31;5015126;28;20029;-59
2022/10/28 00:56:12;;;;;;;23.50;15.30;;;;;;;13.47;100.00;101509.59;5013717;28;20125;-60
2022/10/28 00:58:38;;;;;;;28.35;16.40;;;;;;;13.41;100.00;101523.00;5015181;28;20118;-62
2022/10/28 01:01:03;;;;;;;24.52;15.48;;;;;;;13.08;100.00;101458.88;5013967;28;20053;-61
2022/10/28 01:03:29;;;;;;;22.00;15.38;;;;;;;13.29;100.00;101495.19;5014856;28;20450;-60
2022/10/28 01:05:55;;;;;;;20.90;15.00;;;;;;;12.73;100.00;101403.63;5013970;28;20414;-59
2022/10/28 01:08:20;;;;;;;19.55;14.23;;;;;;;13.23;100.00;101500.69;5013558;28;20077;-60
2022/10/28 01:11:07;;;;;;;23.95;15.10;;;;;;;13.23;100.00;101511.25;5014463;28;20516;-62
2022/10/28 01:13:48;;;;;;;18.02;14.98;;;;;;;13.20;100.00;101503.44;5014397;28;20034;-61
2022/10/28 01:16:40;;;;;;;23.70;14.75;;;;;;;13.20;100.00;101498.13;5029499;28;20091;-63
2022/10/28 01:19:35;;;;;;;23.50;15.75;;;;;;;13.08;100.00;101480.03;5014754;28;20038;-60
2022/10/28 01:22:17;;;;;;;23.90;17.30;;;;;;;13.17;100.00;101489.44;5014143;28;20037;-61
2022/10/28 01:25:01;;;;;;;23.45;15.18;;;;;;;13.14;100.00;101486.88;5014783;28;20045;-61
2022/10/28 01:27:38;;;;;;;26.90;16.95;;;;;;;13.10;100.00;101485.28;5014590;28;20069;-60
2022/10/28 01:30:10;;;;;;;23.27;15.70;;;;;;;12.69;100.00;101423.16;5014579;28;20033;-60
2022/10/28 01:32:41;;;;;;;26.48;15.77;;;;;;;12.91;100.00;101475.25;5029460;28;20492;-61
2022/10/28 01:35:12;;;;;;;21.63;15.10;;;;;;;12.54;100.00;101413.94;5014288;28;20140;-59
2022/10/28 01:37:56;;;;;;;;;;;;;;;12.91;100.00;101487.59;5015020;28;20034;-60
2022/10/28 01:40:46;;;;;;;26.08;14.88;;;;;;;12.86;100.00;101477.19;4994740;28;19953;-60
2022/10/28 01:43:15;;;;;;;23.58;15.15;;;;;;;12.47;100.00;101422.97;4994493;28;20109;-62
2022/10/28 01:46:03;;;;;;;20.95;15.98;;;;;;;12.41;100.00;101415.22;4993271;28;20039;-60
2022/10/28 01:48:45;;;;;;;25.65;15.93;;;;;;;12.45;100.00;101421.28;4994456;28;20057;-61
2022/10/28 01:51:17;;;;;;;24.08;15.68;;;;;;;12.52;100.00;101433.41;4993308;28;20034;-60
2022/10/28 01:53:45;;;;;;;22.95;16.02;;;;;;;12.38;100.00;101408.25;4994484;28;20068;-62
2022/10/28 01:56:15;;;;;;;23.70;15.32;;;;;;;12.39;100.00;101415.28;4993231;28;20030;-59
2022/10/28 01:58:42;;;;;;;19.52;15.00;;;;;;;12.69;100.00;101474.22;4994567;28;20520;-59
2022/10/28 02:01:08;;;;;;;20.58;14.75;;;;;;;12.63;100.00;101466.47;5029325;28;20036;-59
2022/10/28 02:03:34;;;;;;;23.38;15.73;;;;;;;12.64;100.00;101460.28;5012667;28;20079;-60
2022/10/28 02:06:02;;;;;;;20.38;15.80;;;;;;;12.62;100.00;101453.31;5013536;28;20055;-61
2022/10/28 02:08:48;;;;;;;26.83;15.50;;;;;;;12.34;100.00;101416.34;5028992;28;20038;-60
2022/10/28 02:11:36;;;;;;;24.42;15.60;;;;;;;12.51;100.00;101451.00;5029047;28;20041;-61
2022/10/28 02:14:23;;;;;;;23.25;16.63;;;;;;;12.59;100.00;101456.03;5013608;28;20109;-62
2022/10/28 02:17:01;;;;;;;29.65;16.67;;;;;;;12.59;100.00;101459.56;5013486;28;20042;-61
2022/10/28 02:19:41;;;;;;;27.77;16.63;;;;;;;12.60;100.00;101465.72;5028867;28;20458;-60
2022/10/28 02:22:18;;;;;;;23.98;16.08;;;;;;;12.40;100.00;101434.63;5013612;28;20026;-61
2022/10/28 02:25:12;;;;;;;25.83;15.90;;;;;;;12.55;100.00;101457.91;5028633;28;20088;-60
2022/10/28 02:27:45;;;;;;;23.55;15.02;;;;;;;12.53;100.00;101459.75;5028467;28;20040;-59
2022/10/28 02:30:24;;;;;;;27.58;15.48;;;;;;;12.52;100.00;101458.00;5008987;28;20034;-60
2022/10/28 02:32:53;;;;;;;24.73;16.88;;;;;;;12.34;100.00;101426.91;4992466;28;20390;-61
2022/10/28 02:35:23;;;;;;;25.83;16.10;;;;;;;12.37;100.00;101440.84;4993403;28;20049;-61
2022/10/28 02:37:51;;;;;;;27.20;16.90;;;;;;;12.49;100.00;101459.91;4992402;28;20061;-60
2022/10/28 02:40:24;;;;;;;23.98;15.82;;;;;;;12.48;100.00;101461.66;4992254;28;20117;-61
2022/10/28 02:42:52;;;;;;;22.45;16.58;;;;;;;12.38;100.00;101447.00;4992316;28;20093;-64
2022/10/28 02:45:21;;;;;;;26.63;15.80;;;;;;;12.43;100.00;101466.22;4992058;28;20030;-61
2022/10/28 02:47:51;;;;;;;23.23;16.05;;;;;;;12.43;100.00;101455.66;4993075;28;20082;-59
2022/10/28 02:50:20;;;;;;;25.33;15.83;;;;;;;12.03;100.00;101400.53;4992064;28;20536;-60
2022/10/28 02:52:49;;;;;;;22.80;15.43;;;;;;;12.34;100.00;101442.75;4992029;28;20530;-60
2022/10/28 02:55:14;;;;;;;27.27;16.50;;;;;;;12.07;100.00;101402.19;4992255;28;20034;-61
2022/10/28 02:57:42;;;;;;;26.60;15.88;;;;;;;12.34;100.00;101438.31;4993369;28;20044;-59
2022/10/28 03:00:16;;;;;;;30.20;16.35;;;;;;;11.96;100.00;101366.47;4991982;28;20084;-62
2022/10/28 03:02:41;;;;;;;24.77;16.05;;;;;;;12.38;100.00;101424.09;4992167;28;20026;-59
2022/10/28 03:05:07;;;;;;;28.23;17.55;;;;;;;12.18;100.00;101383.38;4993174;28;20089;-60
2022/10/28 03:07:32;;;;;;;23.15;16.65;;;;;;;12.43;100.00;101419.53;4993292;28;20466;-61
2022/10/28 03:09:58;;;;;;;25.25;16.60;;;;;;;12.42;100.00;101430.16;4993147;28;20117;-60
2022/10/28 03:12:23;;;;;;;24.05;15.93;;;;;;;12.03;100.00;101365.38;4975856;28;20046;-61
2022/10/28 03:14:48;;;;;;;25.35;15.82;;;;;;;12.36;100.00;101425.06;4991761;28;20149;-63
2022/10/28 03:17:14;;;;;;;26.45;16.67;;;;;;;11.92;100.00;101360.41;4993217;28;20039;-61
2022/10/28 03:19:39;;;;;;;28.23;16.73;;;;;;;12.29;100.00;101428.78;4993300;28;20042;-60
2022/10/28 03:22:04;;;;;;;27.40;16.52;;;;;;;11.94;100.00;101381.50;4992950;28;20085;-61
2022/10/28 03:24:30;;;;;;;32.15;16.50;;;;;;;11.92;100.00;101385.94;4991425;28;20026;-59
2022/10/28 03:26:55;;;;;;;23.00;15.60;;;;;;;12.15;100.00;101417.78;4992883;28;20038;-60
2022/10/28 03:29:21;;;;;;;21.85;15.85;;;;;;;12.19;100.00;101430.88;4992759;28;20458;-60
2022/10/28 03:31:46;;;;;;;26.98;15.18;;;;;;;12.09;100.00;101415.31;4992868;28;20065;-60
2022/10/28 03:34:11;;;;;;;23.63;15.30;;;;;;;12.14;100.00;101439.81;4991779;28;20034;-59
2022/10/28 03:36:36;;;;;;;25.58;15.88;;;;;;;12.09;100.00;101432.03;4991720;28;20375;-61
2022/10/28 03:39:02;;;;;;;25.50;15.82;;;;;;;12.09;100.00;101436.44;4975452;28;20034;-62
2022/10/28 03:41:28;;;;;;;25.30;15.63;;;;;;;11.91;100.00;101406.16;4992622;28;20473;-60
2022/10/28 03:43:54;;;;;;;26.75;16.30;;;;;;;11.93;100.00;101414.06;4996063;28;20073;-62
2022/10/28 03:46:19;;;;;;;23.75;15.23;;;;;;;11.67;100.00;101369.94;4999179;28;20042;-61
2022/10/28 03:48:44;;;;;;;26.13;15.38;;;;;;;11.73;100.00;101380.34;5002797;28;20373;-60
2022/10/28 03:51:10;;;;;;;23.92;14.40;;;;;;;12.05;100.00;101435.69;5019032;28;20046;-61
2022/10/28 03:53:35;;;;;;;23.13;15.15;;;;;;;11.99;100.00;101422.66;5018831;28;20034;-60
2022/10/28 03:56:01;;;;;;;25.17;14.70;;;;;;;11.74;100.00;101385.56;5017464;28;20491;-62
2022/10/28 03:58:27;;;;;;;25.85;14.85;;;;;;;11.67;100.00;101372.56;4984710;28;20088;-59
2022/10/28 04:00:52;;;;;;;25.63;14.52;;;;;;;11.97;100.00;101436.78;4997872;28;20026;-61
2022/10/28 04:03:19;;;;;;;20.25;13.80;;;;;;;11.93;100.00;101425.47;4999309;28;20070;-60
2022/10/28 04:05:47;;;;;;;24.83;15.18;;;;;;;11.92;100.00;101417.59;4997823;28;20026;-63
2022/10/28 04:08:12;;;;;;;23.65;15.20;;;;;;;11.54;100.00;101356.22;4998783;28;20038;-61
2022/10/28 04:10:38;;;;;;;24.48;14.95;;;;;;;11.88;100.00;101415.97;4999077;28;20046;-61
2022/10/28 04:13:04;;;;;;;23.17;15.07;;;;;;;11.86;100.00;101410.72;4999045;28;20034;-61
2022/10/28 04:15:30;;;;;;;22.17;14.98;;;;;;;11.54;100.00;101363.25;4998689;28;20030;-61
2022/10/28 04:17:55;;;;;;;23.65;15.13;;;;;;;11.45;100.00;101351.19;4999171;28;20398;-62
2022/10/28 04:20:21;;;;;;;27.55;15.13;;;;;;;11.84;100.00;101415.19;4998744;28;20077;-58
2022/10/28 04:22:46;;;;;;;25.88;14.90;;;;;;;11.80;100.00;101403.84;4997688;28;20045;-60
2022/10/28 04:25:11;;;;;;;23.42;15.02;;;;;;;11.82;100.00;101412.56;4998884;28;20129;-60
2022/10/28 04:27:37;;;;;;;25.42;15.57;;;;;;;11.79;100.00;101398.63;4998577;28;20042;-60
2022/10/28 04:30:03;;;;;;;26.33;16.67;;;;;;;11.81;100.00;101408.22;4998792;28;20478;-61
2022/10/28 04:32:28;;;;;;;22.60;14.43;;;;;;;11.79;100.00;101407.38;4998945;28;20127;-60
2022/10/28 04:34:53;;;;;;;24.65;14.60;;;;;;;11.77;100.00;101403.94;4998731;28;20117;-61
2022/10/28 04:37:19;;;;;;;22.67;14.77;;;;;;;11.60;100.00;101378.91;4998765;28;20505;-61
2022/10/28 04:39:44;;;;;;;29.33;15.73;;;;;;;11.72;100.00;101407.63;5010938;28;20048;-61
2022/10/28 04:42:09;;;;;;;22.05;14.38;;;;;;;11.69;100.00;101416.47;5018195;28;20033;-60
2022/10/28 04:44:34;;;;;;;23.83;15.27;;;;;;;11.67;100.00;101412.13;5018124;28;20044;-61
2022/10/28 04:47:00;;;;;;;24.00;14.82;;;;;;;11.66;100.00;101429.72;5016759;28;20401;-61
2022/10/28 04:49:25;;;;;;;25.00;14.23;;;;;;;11.32;100.00;101371.75;5018370;28;20120;-61
2022/10/28 04:51:50;;;;;;;24.27;15.50;;;;;;;11.33;100.00;101385.78;5018092;28;20069;-62
2022/10/28 04:54:16;;;;;;;25.00;14.45;;;;;;;11.65;100.00;101432.38;5017887;28;20129;-61
2022/10/28 04:56:41;;;;;;;27.60;15.02;;;;;;;11.37;100.00;101378.69;5013984;28;20030;-60
2022/10/28 04:59:06;;;;;;;20.63;15.63;;;;;;;11.59;100.00;101422.00;5009636;28;20052;-62
2022/10/28 05:01:32;;;;;;;24.27;14.45;;;;;;;10.99;100.00;101308.56;4995338;28;20474;-61
2022/10/28 05:03:57;;;;;;;27.10;15.02;;;;;;;11.25;100.00;101346.47;4995547;28;20089;-61
2022/10/28 05:06:22;;;;;;;27.23;16.17;;;;;;;11.29;100.00;101360.44;4995483;28;20042;-61
2022/10/28 05:08:47;;;;;;;33.50;15.95;;;;;;;11.59;100.00;101411.44;4995298;28;20038;-60
2022/10/28 05:11:13;;;;;;;24.23;14.70;;;;;;;11.09;100.00;101331.13;4995234;28;20034;-60
2022/10/28 05:13:38;;;;;;;23.77;14.90;;;;;;;11.32;100.00;101362.13;4995121;28;20062;-60
2022/10/28 05:16:04;;;;;;;30.45;16.58;;;;;;;11.56;100.00;101407.13;4977667;28;20390;-61
2022/10/28 05:18:29;;;;;;;32.58;15.75;;;;;;;11.51;100.00;101401.13;4995200;28;20038;-61
2022/10/28 05:20:55;;;;;;;28.25;15.77;;;;;;;11.53;100.00;101395.81;4995183;28;20046;-59
2022/10/28 05:23:21;;;;;;;28.42;15.93;;;;;;;11.51;100.00;101398.47;4995131;28;20054;-61
2022/10/28 05:25:47;;;;;;;26.90;15.10;;;;;;;11.53;100.00;101404.56;4995054;28;20042;-61
2022/10/28 05:28:13;;;;;;;28.17;15.77;;;;;;;11.49;100.00;101396.81;4997091;28;20030;-59
2022/10/28 05:30:38;;;;;;;30.13;15.65;;;;;;;11.52;100.00;101416.03;5014754;28;20258;-60
2022/10/28 05:33:03;;;;;;;26.05;15.90;;;;;;;11.47;100.00;101398.63;5014687;28;20393;-59
2022/10/28 05:35:29;;;;;;;26.67;15.93;;;;;;;11.24;100.00;101359.69;5014462;28;20045;-60
2022/10/28 05:37:55;;;;;;;23.05;15.18;;;;;;;11.31;100.00;101356.00;5013195;28;20037;-61
2022/10/28 05:40:21;;;;;;;27.98;15.18;;;;;;;11.63;100.00;101407.84;5014388;28;20034;-60
2022/10/28 05:42:46;;;;;;;26.75;14.32;;;;;;;11.63;100.00;101408.69;5012914;28;20076;-60
2022/10/28 05:45:11;;;;;;;24.55;14.23;;;;;;;11.71;100.00;101406.75;5014379;28;20037;-62
2022/10/28 05:47:44;;;;;;;26.35;15.27;;;;;;;11.44;100.00;101352.09;5012753;28;20077;-59
2022/10/28 05:50:11;;;;;;;25.55;15.05;;;;;;;11.36;100.00;101332.13;5014113;28;20034;-59
2022/10/28 05:52:36;;;;;;;26.17;15.75;;;;;;;11.64;100.00;101386.72;4996852;28;20045;-60
2022/10/28 05:55:01;;;;;;;30.30;17.95;;;;;;;11.66;100.00;101390.16;5012771;28;20045;-60
2022/10/28 05:57:27;;;;;;;27.58;16.67;;;;;;;11.64;100.00;101407.81;5014098;28;20046;-59
2022/10/28 05:59:52;;;;;;;30.67;15.88;;;;;;;11.63;100.00;101400.78;5029139;28;20030;-60
2022/10/28 06:02:17;;;;;;;30.50;16.17;;;;;;;11.38;100.00;101347.03;5012869;28;20069;-60
2022/10/28 06:04:43;;;;;;;26.35;14.77;;;;;;;11.65;100.00;101385.78;5012616;28;20048;-59
2022/10/28 06:07:08;;;;;;;28.15;14.82;;;;;;;11.68;100.00;101387.47;5013718;28;20057;-61
2022/10/28 06:09:33;;;;;;;24.13;14.32;;;;;;;11.10;100.00;101275.75;5012298;28;20180;-61
2022/10/28 06:11:58;;;;;;;25.88;14.32;;;;;;;11.47;100.00;101340.63;5014099;28;20045;-58
2022/10/28 06:14:24;;;;;;;26.75;14.10;;;;;;;11.79;100.00;101390.72;5013553;28;20034;-59
2022/10/28 06:16:49;;;;;;;21.48;12.90;;;;;;;11.53;100.00;101335.19;5012335;28;20034;-61
2022/10/28 06:19:15;;;;;;;28.63;14.38;;;;;;;11.89;100.00;101389.53;5012344;28;20095;-59
2022/10/28 06:21:40;;;;;;;21.85;13.07;;;;;;;11.93;100.00;101390.31;5012356;28;20042;-61
2022/10/28 06:24:07;;;;;;;25.95;13.77;;;;;;;11.93;100.00;101385.91;5013455;28;20030;-60
2022/10/28 06:26:32;;;;;;;24.55;13.80;;;;;;;11.93;100.00;101387.66;5013289;28;20038;-60
2022/10/28 06:28:58;;;;;;;27.58;12.73;;;;;;;11.87;100.00;101375.53;5013379;28;20042;-62
2022/10/28 06:31:23;;;;;;;20.60;12.45;;;;;;;11.59;100.00;101335.84;5012147;28;20034;-60
2022/10/28 06:33:48;;;;;;;21.88;13.48;;;;;;;11.89;100.00;101391.28;5013228;28;20400;-60
2022/10/28 06:36:13;;;;;;;22.20;13.60;;;;;;;11.60;100.00;101337.59;5013406;28;20073;-59
2022/10/28 06:38:39;;;;;;;23.70;13.57;;;;;;;11.63;100.00;101348.06;5013236;28;20065;-60
2022/10/28 06:41:04;;;;;;;23.88;13.63;;;;;;;11.44;100.00;101323.09;5011770;28;20113;-61
2022/10/28 06:43:30;;;;;;;22.92;14.00;;;;;;;11.81;100.00;101397.69;5011659;28;20061;-60
2022/10/28 06:45:56;;;;;;;28.45;14.68;;;;;;;11.82;100.00;101394.09;5013046;28;20532;-60
2022/10/28 06:48:21;;;;;;;27.27;15.15;;;;;;;11.57;100.00;101352.63;5011582;28;20061;-59
2022/10/28 06:50:47;;;;;;;31.63;14.95;;;;;;;11.59;100.00;101346.41;5012824;28;20108;-58
2022/10/28 06:53:12;;;;;;;23.45;14.10;;;;;;;11.94;100.00;101392.06;5011731;28;20061;-59
2022/10/28 06:55:37;;;;;;;22.98;14.10;;;;;;;11.90;100.00;101386.00;5012783;28;20038;-60
2022/10/28 06:58:03;;;;;;;27.45;14.70;;;;;;;12.00;100.00;101399.75;5012968;28;20037;-59
2022/10/28 07:00:30;;;;;;;26.15;15.40;;;;;;;12.08;100.00;101396.00;4995502;28;20038;-60
2022/10/28 07:02:56;;;;;;;27.30;14.85;;;;;;;12.12;100.00;101402.03;4975814;28;20536;-59
2022/10/28 07:05:22;;;;;;;28.73;15.20;;;;;;;11.90;100.00;101354.34;4992940;28;20038;-60
2022/10/28 07:07:48;;;;;;;31.73;15.77;;;;;;;12.17;100.00;101384.31;4991718;28;20053;-62
2022/10/28 07:10:13;;;;;;;29.95;17.63;;;;;;;12.30;100.00;101409.41;4991717;28;20038;-59
2022/10/28 07:12:39;;;;;;;25.80;18.08;;;;;;;12.43;100.00;101424.81;4993095;28;20635;-60
2022/10/28 07:15:04;;;;;;;26.13;15.90;;;;;;;12.47;100.00;101403.59;4993067;28;20445;-60
2022/10/28 07:17:30;;;;;;;28.60;15.68;;;;;;;12.45;100.00;101377.25;4992664;28;20038;-61
2022/10/28 07:19:55;;;;;;;29.35;15.90;;;;;;;12.55;100.00;101375.19;4992659;28;20039;-61
2022/10/28 07:22:20;;;;;;;21.65;13.90;;;;;;;12.92;100.00;101410.06;4993086;28;20042;-60
2022/10/28 07:24:46;;;;;;;25.05;14.15;;;;;;;13.02;100.00;101400.06;4992908;28;20038;-60
2022/10/28 07:27:11;;;;;;;24.90;14.68;;;;;;;13.12;100.00;101405.03;4992979;28;20398;-59
2022/10/28 07:29:37;;;;;;;29.75;13.02;;;;;;;13.21;100.00;101406.47;4992800;28;20030;-59
2022/10/28 07:32:02;;;;;;;22.60;12.95;;;;;;;13.29;100.00;101407.94;4992796;28;20466;-61
2022/10/28 07:34:27;;;;;;;25.73;12.90;;;;;;;13.38;100.00;101406.75;4992583;28;20390;-60
2022/10/28 07:36:53;;;;;;;22.55;12.43;;;;;;;13.50;100.00;101417.78;4994344;28;20056;-61
2022/10/28 07:39:19;;;;;;;20.05;12.38;;;;;;;13.32;100.00;101373.47;5010772;28;20497;-62
2022/10/28 07:41:45;;;;;;;26.95;14.23;;;;;;;13.39;100.00;101371.47;4994537;28;20065;-60
2022/10/28 07:44:10;;;;;;;23.27;12.00;;;;;;;13.77;100.00;101431.81;5001689;28;20428;-62
2022/10/28 07:46:35;;;;;;;20.95;11.73;;;;;;;13.82;100.00;101429.84;5012188;28;20038;-59
2022/10/28 07:49:01;;;;;;;23.80;12.27;;;;;;;13.92;100.00;101436.53;5011499;28;20367;-59
2022/10/28 07:51:26;;;;;;;18.92;11.52;;;;;;;13.96;100.00;101437.28;5012138;28;20034;-61
2022/10/28 07:53:51;;;;;;;19.50;11.25;;;;;;;13.94;100.00;101420.59;5010194;28;20084;-60
2022/10/28 07:56:17;;;;;;;27.13;11.77;;;;;;;13.78;100.00;101387.66;5002347;28;20065;-60
2022/10/28 07:58:43;;;;;;;20.42;10.25;;;;;;;13.97;100.00;101416.06;4994497;28;20034;-60
2022/10/28 08:01:10;;;;;;;20.83;10.35;;;;;;;14.09;100.00;101420.03;5010800;28;20033;-59
2022/10/28 08:03:36;;;;;;;21.25;11.18;;;;;;;13.89;100.00;101370.47;4993272;28;20401;-59
2022/10/28 08:06:04;;;;;;;18.70;10.35;;;;;;;14.25;100.00;101425.59;5027367;28;20030;-59
2022/10/28 08:08:29;;;;;;;18.35;9.82;;;;;;;14.02;100.00;101377.03;5010943;28;20030;-60
2022/10/28 08:10:55;;;;;;;16.88;10.40;;;;;;;14.07;100.00;101377.72;5012194;28;20440;-59
2022/10/28 08:13:20;;;;;;;17.15;10.40;;;;;;;14.11;100.00;101373.19;5012235;28;20132;-63
2022/10/28 08:15:53;;;;;;;17.00;9.73;;;;;;;14.18;100.00;101374.69;5010058;28;20041;-60
2022/10/28 08:18:19;;;;;;;20.65;11.35;;;;;;;14.54;100.00;101414.78;5006737;28;20489;-60
2022/10/28 08:20:44;;;;;;;18.35;10.57;;;;;;;14.63;100.00;101422.34;5009423;28;20041;-61
2022/10/28 08:23:10;;;;;;;16.27;9.65;;;;;;;14.74;100.00;101420.13;5010649;28;20034;-60
2022/10/28 08:25:36;;;;;;;16.95;9.15;;;;;;;14.54;100.00;101378.56;5010600;28;20038;-58
2022/10/28 08:28:04;;;;;;;18.23;9.88;;;;;;;14.91;100.00;101414.16;5010779;28;20068;-59
2022/10/28 08:30:29;;;;;;;19.77;9.82;;;;;;;14.88;100.00;101419.59;5012425;28;20037;-61
2022/10/28 08:32:54;;;;;;;14.15;9.43;;;;;;;14.83;100.00;101384.44;5013895;28;20042;-61
2022/10/28 08:35:20;;;;;;;13.52;7.88;;;;;;;15.17;100.00;101424.56;5015602;28;20053;-60
2022/10/28 08:37:51;;;;;;;13.43;8.73;;;;;;;15.32;100.00;101417.75;5014294;28;20147;-59
2022/10/28 08:40:19;;;;;;;17.55;9.52;;;;;;;15.14;100.00;101372.53;5015436;28;20034;-60
2022/10/28 08:42:48;;;;;;;14.52;8.50;;;;;;;15.41;100.00;101412.03;5014492;28;20108;-60
2022/10/28 08:45:32;;;;;;;17.10;8.02;;;;;;;15.25;100.00;101373.81;5014571;28;20026;-60
2022/10/28 08:48:21;;;;;;;17.08;8.70;;;;;;;15.54;100.00;101405.28;5030297;28;20058;-60
2022/10/28 08:50:52;;;;;;;17.33;8.18;;;;;;;15.61;100.00;101401.44;5014100;28;20041;-61
2022/10/28 08:53:24;;;;;;;14.48;8.18;;;;;;;15.67;100.00;101404.66;5029301;28;20041;-60
2022/10/28 08:55:51;;;;;;;13.93;7.13;;;;;;;15.69;100.00;101400.19;5012951;28;20026;-60
2022/10/28 08:58:25;;;;;;;13.50;7.90;;;;;;;15.51;100.00;101358.53;5028897;28;20589;-62
2022/10/28 09:00:55;;;;;;;15.93;7.30;;;;;;;15.77;100.00;101395.38;5012387;28;20400;-60
2022/10/28 09:03:23;;;;;;;21.33;8.95;;;;;;;15.87;100.00;101389.66;5013379;28;20065;-61
2022/10/28 09:05:56;;;;;;;10.50;6.90;;;;;;;15.87;100.00;101376.38;5028901;28;20444;-60
2022/10/28 09:08:23;;;;;;;12.05;6.78;;;;;;;15.96;100.00;101390.13;5029227;28;20060;-59
2022/10/28 09:10:58;;;;;;;13.52;6.68;;;;;;;16.16;100.00;101406.00;5013453;28;20033;-60
2022/10/28 09:13:45;;;;;;;11.18;6.82;;;;;;;16.30;100.00;101398.22;5013417;28;20062;-57
2022/10/28 09:16:16;;;;;;;17.00;8.02;;;;;;;16.45;100.00;101407.28;5013789;28;20132;-56
2022/10/28 09:18:53;;;;;;;13.95;6.90;;;;;;;16.27;100.00;101352.34;5013457;28;20401;-57
2022/10/28 09:21:24;;;;;;;8.98;5.97;;;;;;;16.79;100.00;101407.38;4994356;28;20474;-54
2022/10/28 09:23:56;;;;;;;;;;;;;;;17.01;100.00;101417.84;4993937;28;20101;-58
2022/10/28 09:26:33;;;;;;;9.75;5.65;;;;;;;17.19;100.00;101432.84;4994349;28;19968;-52
2022/10/28 09:29:18;;;;;;;13.63;5.22;;;;;;;17.31;100.00;101432.25;4992986;28;20109;-56
2022/10/28 09:31:50;;;;;;;12.98;5.50;;;;;;;17.28;100.00;101395.16;4993690;28;20023;-55
2022/10/28 09:34:43;;;;;;;12.48;5.32;;;;;;;17.68;100.00;101439.25;4994678;28;20026;-56
2022/10/28 09:37:16;;;;;;;13.55;5.68;;;;;;;17.87;100.00;101434.66;4993531;28;20026;-53
2022/10/28 09:39:45;;;;;;;13.65;5.50;;;;;;;17.75;100.00;101381.19;4993621;28;20105;-59
2022/10/28 09:42:21;;;;;;;10.38;5.18;;;;;;;18.17;100.00;101436.63;4993824;28;20034;-56
2022/10/28 09:44:56;;;;;;;11.30;4.82;;;;;;;18.15;100.00;101402.09;5006616;28;20026;-56
2022/10/28 09:47:26;;;;;;;11.85;5.43;;;;;;;18.40;100.00;101421.09;5013706;28;20092;-54
2022/10/28 09:49:55;;;;;;;14.98;5.38;;;;;;;18.58;100.00;101440.56;5012692;28;20034;-54
2022/10/28 09:52:27;;;;;;;11.57;5.10;;;;;;;18.51;100.00;101400.06;5014000;28;20045;-61
2022/10/28 09:54:54;;;;;;;13.80;5.00;;;;;;;18.62;100.00;101398.59;5012601;28;20129;-53
2022/10/28 09:57:28;;;;;;;11.07;5.43;;;;;;;18.95;100.00;101436.66;5012648;28;20040;-56
2022/10/28 09:59:53;;;;;;;15.70;5.65;;;;;;;18.87;100.00;101409.56;5013903;28;20470;-58
2022/10/28 10:02:30;;;;;;;14.45;4.90;;;;;;;19.09;100.00;101431.38;5013542;28;20099;-57
2022/10/28 10:04:56;;;;;;;12.95;5.97;;;;;;;18.96;100.00;101401.03;5029081;28;20041;-54
2022/10/28 10:07:39;;;;;;;16.30;5.60;;;;;;;19.08;100.00;101429.69;5028993;28;20034;-59
2022/10/28 10:10:31;;;;;;;11.80;6.13;;;;;;;19.05;100.00;101413.84;5029347;28;20033;-59
2022/10/28 10:13:00;;;;;;;18.20;5.47;;;;;;;19.00;100.00;101384.75;5013208;28;20115;-56
2022/10/28 10:15:32;;;;;;;14.18;5.60;;;;;;;19.21;100.00;101406.66;5028860;28;20033;-52
2022/10/28 10:17:59;;;;;;;10.93;5.18;;;;;;;19.56;100.00;101471.31;5028851;28;20041;-58
2022/10/28 10:20:25;;;;;;;10.95;4.80;;;;;;;19.70;100.00;101466.03;5012254;28;20034;-57
2022/10/28 10:22:51;;;;;;;14.55;5.10;;;;;;;19.70;100.00;101459.84;5028808;28;20033;-55
2022/10/28 10:25:19;;;;;;;12.35;5.38;;;;;;;19.76;100.00;101462.13;5029009;28;20157;-57
2022/10/28 10:27:59;;;;;;;11.40;5.45;;;;;;;19.81;100.00;101470.72;5013408;28;20037;-55
2022/10/28 10:30:35;;;;;;;14.75;5.70;;;;;;;19.83;100.00;101476.81;5013307;28;20504;-56
2022/10/28 10:33:01;;;;;;;14.68;5.38;;;;;;;19.83;100.00;101452.78;5028918;28;20040;-56
2022/10/28 10:35:29;;;;;;;10.32;4.82;;;;;;;19.90;100.00;101471.03;5028515;28;20037;-58
2022/10/28 10:38:00;;;;;;;13.23;5.72;;;;;;;19.88;100.00;101459.56;5028531;28;20036;-61
2022/10/28 10:40:30;;;;;;;11.68;5.35;;;;;;;19.87;100.00;101433.81;5013400;28;20053;-57
2022/10/28 10:43:17;;;;;;;11.20;5.27;;;;;;;19.94;100.00;101444.97;5013243;28;20489;-57
2022/10/28 10:45:58;;;;;;;11.57;4.68;;;;;;;20.11;100.00;101477.72;5011836;28;20347;-58
2022/10/28 10:48:23;;;;;;;10.57;4.35;;;;;;;19.97;100.00;101445.63;5027905;28;20501;-59
2022/10/28 10:50:49;;;;;;;14.98;4.90;;;;;;;20.13;100.00;101478.50;5028240;28;20038;-57
2022/10/28 10:53:23;;;;;;;13.50;4.78;;;;;;;20.15;100.00;101479.25;5027002;28;20025;-53
2022/10/28 10:55:52;;;;;;;10.35;4.40;;;;;;;20.12;100.00;101474.09;5011814;28;20527;-57
2022/10/28 10:58:20;;;;;;;13.70;5.45;;;;;;;19.82;100.00;101446.56;5011657;28;20485;-57
2022/10/28 11:00:48;;;;;;;14.80;5.07;;;;;;;20.08;100.00;101477.06;4994063;28;20210;-56
2022/10/28 11:03:37;;;;;;;11.30;5.05;;;;;;;19.98;100.00;101468.75;4990816;28;20030;-57
2022/10/28 11:06:06;;;;;;;13.27;4.82;;;;;;;20.02;100.00;101467.59;4991530;28;20402;-56
2022/10/28 11:08:36;;;;;;;7.53;4.50;;;;;;;19.77;100.00;101445.13;4992877;28;20042;-58
2022/10/28 11:11:07;;;;;;;15.52;4.70;;;;;;;19.84;100.00;101446.50;4991774;28;20041;-53
2022/10/28 11:13:34;;;;;;;13.10;4.88;;;;;;;20.25;100.00;101487.59;4991639;28;20117;-57